Time;durP1;ratioP1;P1;durP2;ratioP2;P2;SDS_P1;SDS_P2;PMS_P1;PMS_P2;Temp;Humidity;BMP_temperature;BMP_pressure;BME280_temperature;BME280_humidity;BME280_pressure;Samples;Min_cycle;Max_cycle;Signal;HPM_P1;HPM_P2
2022/05/27 00:00:05;;;;;;;5.10;2.28;;;;;;;14.47;86.87;101854.72;5278834;28;20053;-66
2022/05/27 00:02:36;;;;;;;6.93;2.42;;;;;;;14.46;86.94;101854.88;5277200;28;20475;-66
2022/05/27 00:05:08;;;;;;;5.97;2.40;;;;;;;14.48;87.64;101847.56;5276002;28;20028;-66
2022/05/27 00:07:40;;;;;;;5.72;2.53;;;;;;;14.46;87.21;101852.19;5277009;28;20032;-66
2022/05/27 00:10:14;;;;;;;6.25;2.28;;;;;;;14.48;87.33;101842.19;5277290;28;20012;-66
2022/05/27 00:12:45;;;;;;;6.90;2.67;;;;;;;14.44;86.96;101844.25;5278513;28;20502;-66
2022/05/27 00:15:16;;;;;;;7.30;2.60;;;;;;;14.47;87.32;101840.47;5279133;28;20035;-66
2022/05/27 00:17:47;;;;;;;7.25;2.40;;;;;;;14.48;87.54;101840.34;5275201;28;20060;-66
2022/05/27 00:20:19;;;;;;;7.85;2.75;;;;;;;14.44;87.33;101832.63;5277979;28;20479;-66
2022/05/27 00:22:50;;;;;;;8.10;2.25;;;;;;;14.43;87.80;101828.25;5277732;28;20032;-66
2022/05/27 00:25:21;;;;;;;9.32;2.33;;;;;;;14.44;87.78;101827.25;5277176;28;20545;-66
2022/05/27 00:27:53;;;;;;;7.38;2.38;;;;;;;14.43;88.30;101841.69;5276949;28;20486;-66
2022/05/27 00:30:25;;;;;;;7.30;2.60;;;;;;;14.43;88.26;101833.63;5277599;28;20023;-66
2022/05/27 00:32:56;;;;;;;7.57;2.38;;;;;;;14.45;88.18;101829.84;5275166;28;20715;-66
2022/05/27 00:35:28;;;;;;;5.75;2.20;;;;;;;14.44;88.09;101829.94;5274148;28;20036;-66
2022/05/27 00:38:00;;;;;;;7.75;2.47;;;;;;;14.42;88.54;101832.78;5273457;28;20568;-66
2022/05/27 00:40:38;;;;;;;5.97;2.35;;;;;;;14.48;88.56;101831.44;5276398;28;20432;-66
2022/05/27 00:43:10;;;;;;;10.63;3.22;;;;;;;14.43;88.38;101834.47;5277666;28;20351;-66
2022/05/27 00:45:44;;;;;;;7.10;2.75;;;;;;;14.42;88.14;101826.53;5275094;28;20031;-66
2022/05/27 00:48:19;;;;;;;7.03;3.03;;;;;;;14.47;89.11;101824.34;5276556;28;20477;-66
2022/05/27 00:50:51;;;;;;;8.35;2.97;;;;;;;14.41;88.39;101824.84;5275183;28;20285;-66
2022/05/27 00:53:29;;;;;;;7.65;2.67;;;;;;;14.44;88.70;101833.50;5277735;28;20084;-66
2022/05/27 00:56:04;;;;;;;8.57;2.58;;;;;;;14.44;88.73;101816.53;5277148;28;20054;-67
2022/05/27 00:58:40;;;;;;;9.75;3.60;;;;;;;14.46;89.47;101822.66;5277941;28;20291;-66
2022/05/27 01:01:13;;;;;;;6.72;2.40;;;;;;;14.37;89.96;101824.22;5276208;28;20024;-67
2022/05/27 01:03:47;;;;;;;7.93;2.63;;;;;;;14.32;90.62;101823.69;5276573;28;20027;-67
2022/05/27 01:06:18;;;;;;;7.68;2.85;;;;;;;14.32;91.82;101808.47;5274708;28;20056;-67
2022/05/27 01:08:50;;;;;;;7.93;3.35;;;;;;;14.24;93.35;101818.91;5275016;28;20115;-67
2022/05/27 01:11:51;;;;;;;8.93;3.25;;;;;;;14.15;95.69;101806.19;5273613;28;20123;-67
2022/05/27 01:14:31;;;;;;;8.85;3.83;;;;;;;14.03;96.28;101831.28;5274936;28;20394;-67
2022/05/27 01:17:05;;;;;;;8.93;3.50;;;;;;;13.95;96.46;101817.59;5274134;28;20024;-67
2022/05/27 01:23:18;;;;;;;13.63;4.25;;;;;;;13.84;98.31;101811.19;5276228;28;20028;-66
2022/05/27 01:25:58;;;;;;;8.00;3.78;;;;;;;13.72;100.00;101814.81;5272299;28;20629;-67
2022/05/27 01:28:38;;;;;;;7.68;4.00;;;;;;;13.63;100.00;101812.81;5272820;28;20033;-66
2022/05/27 01:31:45;;;;;;;9.98;4.68;;;;;;;13.57;100.00;101818.63;5276317;28;20028;-66
2022/05/27 01:34:27;;;;;;;11.13;5.35;;;;;;;13.46;100.00;101811.34;5274378;28;20513;-67
2022/05/27 01:37:07;;;;;;;14.68;5.05;;;;;;;13.36;100.00;101810.34;5275704;28;20028;-66
2022/05/27 01:39:53;;;;;;;10.02;4.97;;;;;;;13.28;100.00;101808.19;5276810;28;20044;-66
2022/05/27 01:42:58;;;;;;;12.07;5.47;;;;;;;13.29;100.00;101805.38;5277144;28;20571;-66
2022/05/27 01:45:50;;;;;;;9.70;4.95;;;;;;;13.33;100.00;101809.59;5274995;28;20052;-66
2022/05/27 01:48:33;;;;;;;13.15;5.40;;;;;;;13.29;100.00;101800.03;5274771;28;20104;-66
2022/05/27 01:51:30;;;;;;;13.63;4.90;;;;;;;13.33;100.00;101806.06;5274266;28;20028;-66
2022/05/27 01:54:34;;;;;;;11.52;5.00;;;;;;;13.29;100.00;101810.75;5275775;28;20173;-67
2022/05/27 01:57:12;;;;;;;12.30;5.57;;;;;;;13.31;100.00;101810.69;5276480;28;20072;-67
2022/05/27 02:00:06;;;;;;;10.45;4.97;;;;;;;13.23;100.00;101813.88;5274060;28;20033;-66
2022/05/27 02:02:42;;;;;;;11.30;5.10;;;;;;;13.19;100.00;101808.84;5274050;28;20125;-65
2022/05/27 02:05:27;;;;;;;10.70;6.13;;;;;;;13.10;100.00;101805.00;5271783;28;20294;-66
2022/05/27 02:08:02;;;;;;;;;;;;;;;13.12;100.00;101809.28;5273896;28;20071;-66
2022/05/27 02:10:39;;;;;;;17.27;6.60;;;;;;;13.16;100.00;101809.06;5275613;28;19923;-66
2022/05/27 02:13:16;;;;;;;14.60;6.38;;;;;;;13.08;100.00;101807.78;5273037;28;20028;-66
2022/05/27 02:15:51;;;;;;;15.30;7.80;;;;;;;13.08;100.00;101809.63;5274313;28;20066;-66
2022/05/27 02:18:31;;;;;;;12.80;6.75;;;;;;;13.11;100.00;101804.88;5273075;28;20161;-66
2022/05/27 02:21:17;;;;;;;15.40;7.60;;;;;;;13.06;100.00;101809.72;5276208;28;20032;-65
2022/05/27 02:24:13;;;;;;;14.95;7.88;;;;;;;12.97;100.00;101809.53;5272926;28;20060;-65
2022/05/27 02:26:51;;;;;;;17.88;7.93;;;;;;;12.98;100.00;101812.06;5275209;28;20366;-65
2022/05/27 02:29:29;;;;;;;17.73;7.95;;;;;;;13.09;100.00;101803.28;5273059;28;20024;-65
2022/05/27 02:32:20;;;;;;;14.70;8.50;;;;;;;12.94;100.00;101799.88;5275734;28;20024;-65
2022/05/27 02:35:10;;;;;;;18.20;8.55;;;;;;;12.92;100.00;101794.66;5273386;28;20036;-65
2022/05/27 02:37:44;;;;;;;17.95;8.10;;;;;;;12.92;100.00;101800.00;5274122;28;20031;-66
2022/05/27 02:40:30;;;;;;;18.25;9.20;;;;;;;12.98;100.00;101795.16;5272201;28;20032;-66
2022/05/27 02:43:41;;;;;;;19.17;9.45;;;;;;;12.97;100.00;101790.78;5273049;28;20055;-66
2022/05/27 02:46:45;;;;;;;14.05;9.15;;;;;;;12.95;100.00;101791.72;5271945;28;20042;-66
2022/05/27 02:49:51;;;;;;;14.52;9.60;;;;;;;13.00;100.00;101788.75;5269862;28;20049;-66
2022/05/27 02:52:44;;;;;;;19.58;10.32;;;;;;;13.01;100.00;101792.28;5273457;28;20042;-66
2022/05/27 02:55:25;;;;;;;18.48;10.55;;;;;;;13.05;100.00;101796.44;5271177;28;20032;-66
2022/05/27 02:58:01;;;;;;;19.58;10.57;;;;;;;12.90;100.00;101793.88;5271800;28;20495;-66
2022/05/27 03:00:34;;;;;;;17.48;10.50;;;;;;;12.88;100.00;101797.63;5274595;28;20510;-66
2022/05/27 03:03:06;;;;;;;16.58;10.55;;;;;;;12.88;100.00;101787.78;5271889;28;20039;-66
2022/05/27 03:05:59;;;;;;;16.67;10.20;;;;;;;12.86;100.00;101786.19;5273114;28;20028;-66
2022/05/27 03:08:48;;;;;;;16.73;10.80;;;;;;;12.83;100.00;101784.59;5271689;28;20033;-66
2022/05/27 03:11:45;;;;;;;20.77;11.30;;;;;;;12.85;100.00;101785.34;5272881;28;20394;-66
2022/05/27 03:14:44;;;;;;;20.23;12.63;;;;;;;12.89;100.00;101785.97;5273367;28;20561;-66
2022/05/27 03:17:46;;;;;;;18.85;12.10;;;;;;;12.84;100.00;101788.09;5272546;28;20111;-66
2022/05/27 03:20:38;;;;;;;20.58;12.15;;;;;;;12.79;100.00;101792.94;5273644;28;20520;-66
2022/05/27 03:23:27;;;;;;;23.13;13.15;;;;;;;12.78;100.00;101786.72;5271296;28;20032;-67
2022/05/27 03:26:29;;;;;;;21.70;13.45;;;;;;;12.75;100.00;101787.81;5271557;28;20043;-66
2022/05/27 03:29:36;;;;;;;22.52;13.77;;;;;;;12.69;100.00;101792.72;5271153;28;20448;-65
2022/05/27 03:32:13;;;;;;;21.48;14.48;;;;;;;12.70;100.00;101786.41;5273306;28;20115;-65
2022/05/27 03:34:51;;;;;;;21.10;14.27;;;;;;;12.69;100.00;101774.81;5272031;28;20051;-65
2022/05/27 03:37:33;;;;;;;24.83;14.95;;;;;;;12.73;100.00;101784.38;5273965;28;20032;-66
2022/05/27 03:40:20;;;;;;;24.23;15.73;;;;;;;12.70;100.00;101792.63;5269744;28;20076;-66
2022/05/27 03:42:53;;;;;;;25.35;16.58;;;;;;;12.73;100.00;101783.50;5272514;28;20024;-66
2022/05/27 03:45:25;;;;;;;27.13;17.05;;;;;;;12.79;100.00;101784.88;5273393;28;20059;-66
2022/05/27 03:47:56;;;;;;;29.23;17.65;;;;;;;12.72;100.00;101785.34;5271587;28;20598;-66
2022/05/27 03:50:27;;;;;;;26.65;17.95;;;;;;;12.72;100.00;101800.56;5270358;28;20116;-67
2022/05/27 03:52:58;;;;;;;33.17;19.13;;;;;;;12.73;100.00;101800.44;5272140;28;20029;-67
2022/05/27 03:55:30;;;;;;;31.73;18.58;;;;;;;12.71;100.00;101807.75;5271292;28;20641;-67
2022/05/27 03:58:01;;;;;;;27.40;17.85;;;;;;;12.80;100.00;101795.50;5271873;28;20025;-66
2022/05/27 04:00:32;;;;;;;23.13;14.85;;;;;;;12.86;100.00;101788.84;5271600;28;20486;-66
2022/05/27 04:03:04;;;;;;;17.95;10.38;;;;;;;12.62;100.00;101800.34;5272420;28;20029;-66
2022/05/27 04:05:37;;;;;;;13.70;8.30;;;;;;;12.47;100.00;101793.38;5272057;28;20062;-66
2022/05/27 04:08:08;;;;;;;14.38;8.48;;;;;;;12.45;100.00;101790.81;5272189;28;20039;-66
2022/05/27 04:10:39;;;;;;;12.50;6.72;;;;;;;12.34;100.00;101791.53;5272283;28;20024;-65
2022/05/27 04:13:11;;;;;;;11.45;7.10;;;;;;;12.34;100.00;101794.22;5272149;28;20056;-66
2022/05/27 04:15:42;;;;;;;12.35;7.68;;;;;;;12.35;100.00;101800.44;5270491;28;20039;-66
2022/05/27 04:18:13;;;;;;;13.70;8.02;;;;;;;12.38;100.00;101802.03;5271527;28;20032;-65
2022/05/27 04:20:44;;;;;;;13.35;8.88;;;;;;;12.42;100.00;101801.72;5273296;28;20056;-66
2022/05/27 04:23:16;;;;;;;19.30;11.07;;;;;;;12.45;100.00;101798.84;5271242;28;20055;-66
2022/05/27 04:25:49;;;;;;;20.75;11.88;;;;;;;12.57;100.00;101802.47;5272724;28;20036;-66
2022/05/27 04:28:20;;;;;;;18.75;12.15;;;;;;;12.61;100.00;101813.84;5271890;28;20047;-65
2022/05/27 04:30:51;;;;;;;20.70;13.15;;;;;;;12.66;100.00;101812.53;5271171;28;20028;-65
2022/05/27 04:33:23;;;;;;;23.33;13.52;;;;;;;12.68;100.00;101805.25;5271895;28;20020;-65
2022/05/27 04:35:55;;;;;;;22.95;13.93;;;;;;;12.73;100.00;101811.16;5272370;28;20537;-65
2022/05/27 04:38:27;;;;;;;24.00;14.73;;;;;;;12.78;100.00;101809.97;5275865;28;20120;-65
2022/05/27 04:40:58;;;;;;;28.58;16.38;;;;;;;12.79;100.00;101801.84;5273681;28;20156;-64
2022/05/27 04:43:29;;;;;;;23.70;16.10;;;;;;;12.80;100.00;101802.69;5275733;28;20028;-64
2022/05/27 04:46:02;;;;;;;26.70;16.73;;;;;;;12.84;100.00;101806.84;5275508;28;20070;-64
2022/05/27 04:48:33;;;;;;;27.05;16.08;;;;;;;12.88;100.00;101805.66;5274679;28;20029;-64
2022/05/27 04:51:04;;;;;;;29.67;16.58;;;;;;;12.98;100.00;101806.72;5276525;28;20097;-64
2022/05/27 04:53:36;;;;;;;32.58;17.42;;;;;;;12.99;100.00;101805.78;5275082;28;20043;-64
2022/05/27 04:56:09;;;;;;;30.45;17.25;;;;;;;13.03;100.00;101809.94;5276376;28;20453;-64
2022/05/27 04:58:40;;;;;;;34.63;17.80;;;;;;;13.15;100.00;101805.50;5273023;28;20021;-64
2022/05/27 05:01:11;;;;;;;32.60;18.23;;;;;;;13.11;100.00;101809.38;5275169;28;20425;-64
2022/05/27 05:03:43;;;;;;;34.83;17.95;;;;;;;13.16;100.00;101801.88;5274809;28;20493;-64
2022/05/27 05:06:16;;;;;;;32.95;17.83;;;;;;;13.24;100.00;101820.94;5271884;28;20064;-64
2022/05/27 05:08:48;;;;;;;31.00;17.83;;;;;;;13.27;100.00;101822.53;5275595;28;20032;-64
2022/05/27 05:11:19;;;;;;;31.40;17.85;;;;;;;13.34;100.00;101816.66;5272660;28;20435;-64
2022/05/27 05:13:50;;;;;;;37.55;17.98;;;;;;;13.34;100.00;101818.47;5275685;28;20032;-64
2022/05/27 05:16:21;;;;;;;37.22;18.15;;;;;;;13.40;100.00;101812.66;5276158;28;20035;-64
2022/05/27 05:18:53;;;;;;;36.45;17.58;;;;;;;13.42;100.00;101821.44;5273411;28;20025;-63
2022/05/27 05:21:24;;;;;;;34.67;17.33;;;;;;;13.47;100.00;101827.34;5274666;28;20059;-64
2022/05/27 05:23:55;;;;;;;38.03;17.55;;;;;;;13.51;100.00;101828.81;5275145;28;20072;-63
2022/05/27 05:26:27;;;;;;;34.40;18.30;;;;;;;13.65;100.00;101824.28;5274613;28;20050;-63
2022/05/27 05:28:58;;;;;;;37.65;18.25;;;;;;;13.58;100.00;101831.06;5275340;28;20035;-63
2022/05/27 05:31:29;;;;;;;37.95;17.63;;;;;;;13.56;100.00;101843.72;5274436;28;20029;-63
2022/05/27 05:34:01;;;;;;;37.00;17.73;;;;;;;13.56;100.00;101838.34;5272832;28;20060;-63
2022/05/27 05:36:34;;;;;;;44.95;18.85;;;;;;;13.63;100.00;101861.06;5274657;28;20024;-63
2022/05/27 05:39:06;;;;;;;35.53;16.33;;;;;;;13.61;100.00;101846.94;5274746;28;20025;-64
2022/05/27 05:41:40;;;;;;;33.83;15.52;;;;;;;13.53;100.00;101853.69;5271243;28;20382;-63
2022/05/27 05:44:11;;;;;;;33.65;16.05;;;;;;;13.58;100.00;101853.38;5275318;28;20032;-63
2022/05/27 05:46:43;;;;;;;27.55;12.57;;;;;;;13.44;100.00;101850.84;5273881;28;20024;-63
2022/05/27 05:49:14;;;;;;;30.60;13.38;;;;;;;13.46;100.00;101857.81;5273397;28;20055;-63
2022/05/27 05:51:45;;;;;;;24.20;13.57;;;;;;;13.55;100.00;101866.16;5274428;28;20227;-63
2022/05/27 05:54:19;;;;;;;29.05;12.68;;;;;;;13.62;100.00;101865.59;5274353;28;20035;-63
2022/05/27 05:56:51;;;;;;;23.17;11.43;;;;;;;13.53;100.00;101860.88;5273224;28;20108;-63
2022/05/27 05:59:22;;;;;;;22.67;9.85;;;;;;;13.54;100.00;101870.66;5274247;28;20024;-63
2022/05/27 06:01:53;;;;;;;22.95;10.18;;;;;;;13.45;100.00;101864.13;5273108;28;20367;-63
2022/05/27 06:04:25;;;;;;;18.35;9.38;;;;;;;13.53;100.00;101863.56;5273522;28;20390;-63
2022/05/27 06:06:57;;;;;;;21.50;9.07;;;;;;;13.63;100.00;101861.06;5271010;28;20032;-63
2022/05/27 06:09:28;;;;;;;21.27;8.85;;;;;;;13.63;100.00;101853.03;5272574;28;20117;-63
2022/05/27 06:12:02;;;;;;;20.73;7.07;;;;;;;13.53;100.00;101863.56;5274675;28;20115;-63
2022/05/27 06:14:35;;;;;;;19.73;7.37;;;;;;;13.52;100.00;101856.50;5271109;28;20370;-63
2022/05/27 06:17:06;;;;;;;20.85;8.02;;;;;;;13.48;100.00;101858.56;5275052;28;20028;-63
2022/05/27 06:19:37;;;;;;;18.27;7.05;;;;;;;13.46;100.00;101857.81;5274291;28;20532;-63
2022/05/27 06:22:08;;;;;;;17.60;6.63;;;;;;;13.44;100.00;101857.06;5274677;28;20051;-63
2022/05/27 06:24:40;;;;;;;15.68;6.68;;;;;;;13.37;100.00;101865.66;5273500;28;20494;-63
2022/05/27 06:27:11;;;;;;;17.60;6.20;;;;;;;13.32;100.00;101868.66;5275242;28;20020;-64
2022/05/27 06:35:22;;;;;;;14.35;6.55;;;;;;;13.28;100.00;101869.81;5272572;28;20037;-63
2022/05/27 06:37:54;;;;;;;12.35;5.15;;;;;;;13.20;100.00;101880.25;5274006;28;20028;-64
2022/05/27 06:40:25;;;;;;;9.80;4.90;;;;;;;13.21;100.00;101871.22;5270601;28;20029;-64
2022/05/27 06:42:56;;;;;;;10.32;4.68;;;;;;;13.27;100.00;101878.81;5272679;28;20033;-63
2022/05/27 06:45:28;;;;;;;15.13;5.10;;;;;;;13.36;100.00;101880.88;5273413;28;20613;-64
2022/05/27 06:47:59;;;;;;;12.82;5.05;;;;;;;13.44;100.00;101880.31;5272067;28;20059;-63
2022/05/27 06:50:31;;;;;;;11.75;4.15;;;;;;;13.37;100.00;101874.56;5273307;28;20103;-64
2022/05/27 06:53:02;;;;;;;13.82;4.75;;;;;;;13.37;100.00;101876.38;5270815;28;20418;-64
2022/05/27 06:55:34;;;;;;;12.23;4.18;;;;;;;13.39;100.00;101885.19;5273721;28;20051;-64
2022/05/27 06:58:05;;;;;;;15.70;4.10;;;;;;;13.31;100.00;101883.91;5272841;28;20530;-64
2022/05/27 07:00:36;;;;;;;10.23;3.22;;;;;;;13.38;100.00;101878.94;5269354;28;20039;-63
2022/05/27 07:03:08;;;;;;;12.90;3.35;;;;;;;13.37;100.00;101884.44;5271336;28;20036;-64
2022/05/27 07:05:39;;;;;;;10.73;3.33;;;;;;;13.34;100.00;101889.03;5272243;28;20114;-64
2022/05/27 07:08:13;;;;;;;11.57;3.33;;;;;;;13.38;100.00;101892.34;5272603;28;20033;-64
2022/05/27 07:10:44;;;;;;;11.98;3.67;;;;;;;13.45;100.00;101890.94;5272008;28;20017;-64
2022/05/27 07:13:15;;;;;;;10.80;3.72;;;;;;;13.55;100.00;101890.28;5272747;28;20446;-64
2022/05/27 07:15:47;;;;;;;12.32;4.30;;;;;;;13.70;100.00;101889.16;5274200;28;20101;-64
2022/05/27 07:18:19;;;;;;;10.20;4.13;;;;;;;13.90;100.00;101879.63;5271335;28;20036;-64
2022/05/27 07:20:50;;;;;;;11.18;4.22;;;;;;;14.00;100.00;101896.78;5275006;28;20028;-64
2022/05/27 07:23:21;;;;;;;10.90;3.85;;;;;;;14.01;100.00;101897.63;5277041;28;20073;-65
2022/05/27 07:25:54;;;;;;;10.32;4.18;;;;;;;14.03;100.00;101893.84;5274812;28;20036;-65
2022/05/27 07:28:26;;;;;;;12.60;3.53;;;;;;;14.07;100.00;101894.50;5277365;28;20033;-64
2022/05/27 07:31:01;;;;;;;12.13;3.42;;;;;;;14.12;100.00;101898.53;5277060;28;20095;-64
2022/05/27 07:33:32;;;;;;;11.40;2.97;;;;;;;14.20;100.00;101897.13;5275974;28;20146;-64
2022/05/27 07:36:04;;;;;;;11.00;3.60;;;;;;;14.27;100.00;101896.53;5265589;28;20048;-64
2022/05/27 07:38:35;;;;;;;7.97;3.17;;;;;;;14.34;100.00;101902.28;5266907;28;20036;-64
2022/05/27 07:41:06;;;;;;;7.45;3.00;;;;;;;14.37;98.16;101896.69;5275398;28;20013;-64
2022/05/27 07:43:38;;;;;;;8.52;3.35;;;;;;;14.48;100.00;101899.44;5276665;28;20094;-64
2022/05/27 07:46:09;;;;;;;10.68;3.22;;;;;;;14.65;100.00;101910.72;5276528;28;20013;-67
2022/05/27 07:48:41;;;;;;;10.73;3.10;;;;;;;14.72;100.00;101913.81;5275903;28;20040;-65
2022/05/27 07:51:12;;;;;;;10.93;3.45;;;;;;;14.86;99.10;101906.41;5276514;28;20032;-65
2022/05/27 07:53:44;;;;;;;9.77;3.63;;;;;;;14.93;95.87;101904.06;5276455;28;20462;-65
2022/05/27 07:56:15;;;;;;;11.80;3.65;;;;;;;14.97;92.69;101905.53;5277541;28;20360;-64
2022/05/27 07:58:47;;;;;;;8.27;2.92;;;;;;;14.97;94.08;101910.91;5275584;28;20031;-64
2022/05/27 08:01:19;;;;;;;10.13;4.18;;;;;;;15.03;93.32;101920.34;5277301;28;20134;-64
2022/05/27 08:03:50;;;;;;;11.93;3.90;;;;;;;14.92;92.03;101909.56;5276139;28;20020;-64
2022/05/27 08:06:22;;;;;;;8.35;4.00;;;;;;;14.89;95.52;101902.63;5277847;28;20162;-65
2022/05/27 08:08:53;;;;;;;8.45;3.60;;;;;;;15.00;89.26;101907.16;5276440;28;20081;-65
2022/05/27 08:11:24;;;;;;;9.15;3.50;;;;;;;15.24;90.68;101898.97;5279504;28;20029;-64
2022/05/27 08:13:55;;;;;;;11.57;3.97;;;;;;;15.40;92.19;101912.06;5275828;28;20611;-65
2022/05/27 08:16:27;;;;;;;9.90;3.65;;;;;;;15.41;93.04;101908.38;5279902;28;20565;-64
2022/05/27 08:19:00;;;;;;;8.18;3.70;;;;;;;15.28;91.58;101913.88;5279982;28;20028;-65
2022/05/27 08:21:36;;;;;;;10.63;3.20;;;;;;;15.12;94.10;101926.84;5280455;28;20028;-65
2022/05/27 08:24:09;;;;;;;7.75;3.08;;;;;;;15.01;92.71;101928.50;5281563;28;20045;-65
2022/05/27 08:26:41;;;;;;;8.63;2.95;;;;;;;14.95;92.43;101936.22;5272897;28;20055;-65
2022/05/27 08:29:13;;;;;;;11.02;3.40;;;;;;;14.79;91.76;101934.72;5280110;28;20025;-65
2022/05/27 08:31:45;;;;;;;8.73;3.20;;;;;;;14.75;94.37;101932.41;5281045;28;20417;-65
2022/05/27 08:39:56;;;;;;;9.48;3.33;;;;;;;15.32;85.95;101927.94;5275375;28;20029;-65
2022/05/27 08:43:08;;;;;;;9.23;3.63;;;;;;;15.51;92.30;101924.63;5280125;28;20037;-65
2022/05/27 08:46:02;;;;;;;8.20;3.50;;;;;;;15.59;87.79;101931.13;5279991;28;20449;-65
2022/05/27 08:48:38;;;;;;;6.50;3.25;;;;;;;15.43;85.10;101942.25;5264206;28;20037;-65
2022/05/27 08:51:18;;;;;;;8.98;3.40;;;;;;;15.44;84.63;101940.44;5272026;28;20016;-65
2022/05/27 08:54:15;;;;;;;8.18;3.58;;;;;;;15.60;87.05;101948.97;5279848;28;20024;-65
2022/05/27 08:59:49;;;;;;;8.50;3.53;;;;;;;15.52;83.05;101942.50;5278912;28;20033;-65
2022/05/27 09:02:42;;;;;;;12.33;3.70;;;;;;;15.54;87.37;101944.09;5279788;28;20045;-66
2022/05/27 09:05:22;;;;;;;8.30;2.80;;;;;;;15.43;78.30;101952.16;5275431;28;20094;-65
2022/05/27 09:08:16;;;;;;;10.50;2.63;;;;;;;15.43;80.83;101958.38;5280250;28;20032;-64
2022/05/27 09:11:11;;;;;;;10.93;2.80;;;;;;;15.62;77.04;101955.06;5279340;28;20033;-66
2022/05/27 09:14:04;;;;;;;8.90;2.55;;;;;;;15.82;73.59;101956.22;5267629;28;20033;-65
2022/05/27 09:16:43;;;;;;;9.93;2.95;;;;;;;15.86;77.71;101944.22;5276524;28;20032;-65
2022/05/27 09:19:23;;;;;;;7.80;2.58;;;;;;;16.06;76.33;101960.56;5278906;28;20033;-65
2022/05/27 09:22:25;;;;;;;6.03;2.13;;;;;;;15.94;73.48;101951.66;5267048;28;20435;-65
2022/05/27 09:25:15;;;;;;;7.40;2.55;;;;;;;15.98;71.33;101974.66;5278807;28;20070;-65
2022/05/27 09:28:00;;;;;;;9.35;2.78;;;;;;;15.99;77.32;101972.81;5279995;28;20036;-65
2022/05/27 09:30:34;;;;;;;7.40;2.40;;;;;;;15.81;71.93;101962.56;5278084;28;20028;-65
2022/05/27 09:33:10;;;;;;;9.18;2.40;;;;;;;15.68;71.28;101978.78;5268169;28;20030;-65
2022/05/27 09:35:46;;;;;;;9.23;2.67;;;;;;;15.72;71.80;101976.72;5277181;28;20028;-64
2022/05/27 09:38:30;;;;;;;8.07;2.30;;;;;;;15.83;75.67;101978.59;5277917;28;20154;-66
2022/05/27 09:41:23;;;;;;;10.20;3.00;;;;;;;16.17;75.73;101976.69;5275455;28;20048;-65
2022/05/27 09:44:19;;;;;;;11.32;2.72;;;;;;;16.23;72.27;101978.03;5277207;28;20028;-66
2022/05/27 09:46:51;;;;;;;10.50;2.72;;;;;;;16.22;72.69;102000.53;5274615;28;20028;-65
2022/05/27 09:49:22;;;;;;;11.38;2.95;;;;;;;15.99;71.42;101994.34;5277557;28;20027;-65
2022/05/27 09:51:53;;;;;;;11.40;2.97;;;;;;;15.95;71.52;101995.56;5277366;28;20091;-65
2022/05/27 09:54:46;;;;;;;9.13;2.83;;;;;;;15.89;70.00;102010.38;5276078;28;20470;-65
2022/05/27 09:57:25;;;;;;;10.05;2.40;;;;;;;15.75;66.50;101999.88;5277976;28;20474;-66
2022/05/27 10:00:00;;;;;;;12.02;2.85;;;;;;;15.83;67.36;101997.44;5276418;28;20641;-65
2022/05/27 10:02:34;;;;;;;10.60;2.70;;;;;;;15.85;67.81;102000.84;5277171;28;20497;-66
2022/05/27 10:05:16;;;;;;;8.73;2.15;;;;;;;16.04;66.41;102000.22;5275383;28;20032;-65
2022/05/27 10:07:57;;;;;;;10.52;2.55;;;;;;;16.14;69.47;101990.41;5273468;28;20028;-66
2022/05/27 10:10:35;;;;;;;13.25;2.55;;;;;;;15.99;63.97;102007.78;5277270;28;20031;-66
2022/05/27 10:13:14;;;;;;;8.98;2.45;;;;;;;16.08;65.41;101999.81;5277630;28;20478;-65
2022/05/27 10:15:46;;;;;;;10.15;2.20;;;;;;;16.02;62.22;101994.09;5275775;28;20567;-65
2022/05/27 10:18:24;;;;;;;8.18;2.63;;;;;;;16.14;61.98;102003.84;5277003;28;20051;-65
2022/05/27 10:21:03;;;;;;;9.38;2.42;;;;;;;16.27;61.19;102017.19;5273385;28;20359;-65
2022/05/27 10:23:41;;;;;;;9.50;2.28;;;;;;;16.35;59.28;102008.47;5277751;28;20052;-65
2022/05/27 10:26:26;;;;;;;8.63;2.22;;;;;;;16.55;60.05;102006.81;5277829;28;20043;-65
2022/05/27 10:28:59;;;;;;;8.00;2.33;;;;;;;16.73;60.50;102001.72;5272043;28;20054;-65
2022/05/27 10:31:30;;;;;;;9.02;2.83;;;;;;;16.75;60.70;101995.22;5278096;28;20031;-66
2022/05/27 10:34:03;;;;;;;6.53;2.20;;;;;;;16.65;60.80;101999.69;5276326;28;20032;-66
2022/05/27 10:36:56;;;;;;;12.18;2.80;;;;;;;16.47;60.57;101996.66;5276050;28;20024;-66
2022/05/27 10:39:39;;;;;;;10.55;2.60;;;;;;;16.60;62.62;102001.91;5278053;28;20109;-66
2022/05/27 10:42:30;;;;;;;7.20;2.33;;;;;;;16.87;61.54;101997.88;5277234;28;20161;-65
2022/05/27 10:45:07;;;;;;;11.75;2.40;;;;;;;16.87;58.53;102014.91;5268569;28;20032;-65
2022/05/27 10:47:59;;;;;;;9.95;2.63;;;;;;;16.51;57.39;102006.22;5277132;28;20635;-66
2022/05/27 10:50:53;;;;;;;10.32;2.42;;;;;;;16.28;60.95;102005.44;5277247;28;20017;-65
2022/05/27 10:53:45;;;;;;;9.17;2.10;;;;;;;16.16;62.19;102009.97;5277192;28;20111;-65
2022/05/27 10:56:35;;;;;;;6.80;2.15;;;;;;;16.12;63.11;101997.75;5277745;28;20399;-66
2022/05/27 11:02:46;;;;;;;9.32;2.30;;;;;;;16.46;61.55;102003.91;5276783;28;20037;-66
2022/05/27 11:05:20;;;;;;;7.55;2.08;;;;;;;16.75;57.39;102003.28;5269919;28;20506;-65
2022/05/27 11:08:22;;;;;;;7.60;2.42;;;;;;;16.95;55.78;102006.16;5269525;28;20082;-65
2022/05/27 11:11:15;;;;;;;6.57;2.22;;;;;;;17.05;54.93;102007.13;5274792;28;20103;-65
2022/05/27 11:17:02;;;;;;;15.60;3.17;;;;;;;17.46;57.47;102008.06;5276550;28;20036;-66
2022/05/27 11:20:07;;;;;;;9.68;2.70;;;;;;;17.48;61.32;101998.00;5276196;28;20077;-66
2022/05/27 11:22:53;;;;;;;8.07;2.20;;;;;;;17.43;59.33;102000.22;5277730;28;20040;-65
2022/05/27 11:25:32;;;;;;;9.07;2.20;;;;;;;17.37;56.21;102000.75;5277613;28;20040;-65
2022/05/27 11:28:29;;;;;;;9.23;2.53;;;;;;;17.14;56.20;102022.47;5276971;28;20032;-65
2022/05/27 11:31:32;;;;;;;8.90;2.50;;;;;;;17.13;57.13;102023.50;5272294;28;20036;-65
2022/05/27 11:34:25;;;;;;;7.38;2.20;;;;;;;17.27;55.10;102016.91;5275952;28;20040;-65
2022/05/27 11:37:09;;;;;;;9.85;2.50;;;;;;;17.11;55.50;102032.72;5267330;28;20062;-65
2022/05/27 11:39:58;;;;;;;9.48;2.20;;;;;;;16.97;59.47;102014.97;5276630;28;20390;-65
2022/05/27 11:42:48;;;;;;;10.55;2.80;;;;;;;16.65;59.75;102026.63;5277508;28;20027;-65
2022/05/27 11:45:21;;;;;;;11.30;2.53;;;;;;;16.64;60.16;102012.31;5279973;28;20036;-64
2022/05/27 11:48:23;;;;;;;7.97;2.47;;;;;;;16.66;62.89;102015.72;5276966;28;20386;-64
2022/05/27 11:51:05;;;;;;;9.80;2.50;;;;;;;16.80;56.66;102043.34;5283541;28;20027;-66
2022/05/27 11:53:50;;;;;;;7.40;2.22;;;;;;;16.84;58.59;102020.59;5277865;28;20031;-65
2022/05/27 11:56:36;;;;;;;8.93;3.20;;;;;;;16.97;56.43;102021.25;5287130;28;20028;-65
2022/05/27 11:59:20;;;;;;;6.97;2.42;;;;;;;17.10;56.90;102022.88;5278733;28;20053;-65
2022/05/27 12:02:01;;;;;;;8.02;2.20;;;;;;;17.33;53.86;102018.22;5279486;28;20032;-66
2022/05/27 12:04:42;;;;;;;8.25;2.30;;;;;;;17.18;53.66;102033.88;5281601;28;20041;-64
2022/05/27 12:07:29;;;;;;;13.32;3.17;;;;;;;16.88;53.03;102023.88;5283796;28;20093;-65
2022/05/27 12:10:09;;;;;;;10.02;2.47;;;;;;;16.68;54.90;102026.34;5283192;28;20564;-65
2022/05/27 12:12:55;;;;;;;8.15;2.58;;;;;;;16.75;53.86;102029.41;5283933;28;20123;-65
2022/05/27 12:15:36;;;;;;;10.77;3.45;;;;;;;16.95;57.30;102027.75;5273244;28;20431;-65
2022/05/27 12:18:12;;;;;;;9.60;2.47;;;;;;;17.19;55.10;102028.34;5283323;28;20031;-65
2022/05/27 12:20:44;;;;;;;7.40;2.42;;;;;;;17.30;53.64;102032.84;5283326;28;20414;-65
2022/05/27 12:23:20;;;;;;;8.63;2.65;;;;;;;17.36;53.01;102016.09;5283929;28;20433;-65
2022/05/27 12:25:55;;;;;;;7.20;2.25;;;;;;;17.42;52.96;102020.97;5284338;28;20420;-65
2022/05/27 12:28:34;;;;;;;7.03;2.08;;;;;;;17.39;52.88;102026.66;5279136;28;20486;-66